sensor_id;sensor_type;location;lat;lon;timestamp;P1;durP1;ratioP1;P2;durP2;ratioP2
12474;SDS011;6302;42.624;23.334;2023-07-29T00:00:41;3.23;;;2.83;;
12474;SDS011;6302;42.624;23.334;2023-07-29T00:03:08;3.23;;;2.50;;
12474;SDS011;6302;42.624;23.334;2023-07-29T00:05:34;3.33;;;2.57;;
12474;SDS011;6302;42.624;23.334;2023-07-29T00:08:03;2.93;;;2.67;;
12474;SDS011;6302;42.624;23.334;2023-07-29T00:12:57;3.43;;;2.50;;
12474;SDS011;6302;42.624;23.334;2023-07-29T00:15:24;3.87;;;2.63;;
12474;SDS011;6302;42.624;23.334;2023-07-29T00:17:51;2.60;;;2.30;;
12474;SDS011;6302;42.624;23.334;2023-07-29T00:20:18;2.70;;;2.50;;
12474;SDS011;6302;42.624;23.334;2023-07-29T00:22:44;3.10;;;2.40;;
12474;SDS011;6302;42.624;23.334;2023-07-29T00:25:12;2.87;;;2.67;;
12474;SDS011;6302;42.624;23.334;2023-07-29T00:27:39;5.53;;;2.80;;
12474;SDS011;6302;42.624;23.334;2023-07-29T00:30:06;3.00;;;2.57;;
12474;SDS011;6302;42.624;23.334;2023-07-29T00:32:34;3.10;;;2.90;;
12474;SDS011;6302;42.624;23.334;2023-07-29T00:35:02;3.10;;;2.90;;
12474;SDS011;6302;42.624;23.334;2023-07-29T00:37:29;3.13;;;2.93;;
12474;SDS011;6302;42.624;23.334;2023-07-29T00:39:56;3.13;;;2.87;;
12474;SDS011;6302;42.624;23.334;2023-07-29T00:42:24;5.00;;;2.77;;
12474;SDS011;6302;42.624;23.334;2023-07-29T00:44:51;3.67;;;2.53;;
12474;SDS011;6302;42.624;23.334;2023-07-29T00:47:18;2.90;;;2.70;;
12474;SDS011;6302;42.624;23.334;2023-07-29T00:49:46;3.17;;;2.87;;
12474;SDS011;6302;42.624;23.334;2023-07-29T00:52:13;2.80;;;2.60;;
12474;SDS011;6302;42.624;23.334;2023-07-29T00:54:40;3.47;;;3.00;;
12474;SDS011;6302;42.624;23.334;2023-07-29T00:57:06;3.37;;;3.07;;
12474;SDS011;6302;42.624;23.334;2023-07-29T00:59:37;3.27;;;2.97;;
12474;SDS011;6302;42.624;23.334;2023-07-29T01:02:04;4.07;;;2.80;;
12474;SDS011;6302;42.624;23.334;2023-07-29T01:04:31;3.20;;;2.83;;
12474;SDS011;6302;42.624;23.334;2023-07-29T01:06:58;3.43;;;3.13;;
12474;SDS011;6302;42.624;23.334;2023-07-29T01:09:30;3.23;;;3.00;;
12474;SDS011;6302;42.624;23.334;2023-07-29T01:12:10;3.20;;;2.90;;
12474;SDS011;6302;42.624;23.334;2023-07-29T01:14:45;4.40;;;2.90;;
12474;SDS011;6302;42.624;23.334;2023-07-29T01:17:19;3.27;;;2.97;;
12474;SDS011;6302;42.624;23.334;2023-07-29T01:19:55;3.67;;;3.23;;
12474;SDS011;6302;42.624;23.334;2023-07-29T01:22:30;3.17;;;2.87;;
12474;SDS011;6302;42.624;23.334;2023-07-29T01:24:59;3.00;;;2.80;;
12474;SDS011;6302;42.624;23.334;2023-07-29T01:27:26;2.90;;;2.60;;
12474;SDS011;6302;42.624;23.334;2023-07-29T01:29:53;3.60;;;2.77;;
12474;SDS011;6302;42.624;23.334;2023-07-29T01:32:22;4.33;;;2.80;;
12474;SDS011;6302;42.624;23.334;2023-07-29T01:34:56;3.40;;;3.00;;
12474;SDS011;6302;42.624;23.334;2023-07-29T01:37:26;3.30;;;3.00;;
12474;SDS011;6302;42.624;23.334;2023-07-29T01:39:58;3.77;;;3.37;;
12474;SDS011;6302;42.624;23.334;2023-07-29T01:42:27;3.40;;;3.10;;
12474;SDS011;6302;42.624;23.334;2023-07-29T01:44:55;3.93;;;3.63;;
12474;SDS011;6302;42.624;23.334;2023-07-29T01:47:22;4.20;;;3.80;;
12474;SDS011;6302;42.624;23.334;2023-07-29T01:49:49;4.53;;;4.00;;
12474;SDS011;6302;42.624;23.334;2023-07-29T01:52:16;5.23;;;3.90;;
12474;SDS011;6302;42.624;23.334;2023-07-29T01:54:43;3.73;;;3.43;;
12474;SDS011;6302;42.624;23.334;2023-07-29T01:57:11;4.73;;;3.80;;
12474;SDS011;6302;42.624;23.334;2023-07-29T01:59:38;6.10;;;3.40;;
12474;SDS011;6302;42.624;23.334;2023-07-29T02:02:05;4.13;;;3.73;;
12474;SDS011;6302;42.624;23.334;2023-07-29T02:04:32;4.43;;;4.03;;
12474;SDS011;6302;42.624;23.334;2023-07-29T02:06:59;4.20;;;3.80;;
12474;SDS011;6302;42.624;23.334;2023-07-29T02:09:26;4.07;;;3.70;;
12474;SDS011;6302;42.624;23.334;2023-07-29T02:11:53;3.70;;;3.40;;
12474;SDS011;6302;42.624;23.334;2023-07-29T02:14:21;3.40;;;3.10;;
12474;SDS011;6302;42.624;23.334;2023-07-29T02:16:49;5.07;;;3.23;;
12474;SDS011;6302;42.624;23.334;2023-07-29T02:19:16;3.80;;;3.27;;
12474;SDS011;6302;42.624;23.334;2023-07-29T02:21:43;3.37;;;3.00;;
12474;SDS011;6302;42.624;23.334;2023-07-29T02:24:10;3.73;;;3.30;;
12474;SDS011;6302;42.624;23.334;2023-07-29T02:26:36;3.80;;;3.40;;
12474;SDS011;6302;42.624;23.334;2023-07-29T02:29:03;3.80;;;3.50;;
12474;SDS011;6302;42.624;23.334;2023-07-29T02:31:31;3.90;;;3.60;;
12474;SDS011;6302;42.624;23.334;2023-07-29T02:33:59;3.87;;;3.30;;
12474;SDS011;6302;42.624;23.334;2023-07-29T02:36:26;4.00;;;3.57;;
12474;SDS011;6302;42.624;23.334;2023-07-29T02:38:53;5.03;;;3.53;;
12474;SDS011;6302;42.624;23.334;2023-07-29T02:41:20;4.30;;;3.47;;
12474;SDS011;6302;42.624;23.334;2023-07-29T02:43:48;4.17;;;3.17;;
12474;SDS011;6302;42.624;23.334;2023-07-29T02:46:15;3.97;;;3.67;;
12474;SDS011;6302;42.624;23.334;2023-07-29T02:48:44;3.73;;;3.43;;
12474;SDS011;6302;42.624;23.334;2023-07-29T02:51:11;3.90;;;3.60;;
12474;SDS011;6302;42.624;23.334;2023-07-29T02:53:37;3.83;;;3.53;;
12474;SDS011;6302;42.624;23.334;2023-07-29T02:56:04;3.57;;;3.27;;
12474;SDS011;6302;42.624;23.334;2023-07-29T02:58:34;4.17;;;3.60;;
12474;SDS011;6302;42.624;23.334;2023-07-29T03:01:01;3.97;;;3.67;;
12474;SDS011;6302;42.624;23.334;2023-07-29T03:03:28;3.70;;;3.40;;
12474;SDS011;6302;42.624;23.334;2023-07-29T03:06:01;3.37;;;3.10;;
12474;SDS011;6302;42.624;23.334;2023-07-29T03:08:29;4.33;;;3.50;;
12474;SDS011;6302;42.624;23.334;2023-07-29T03:10:56;4.70;;;3.33;;
12474;SDS011;6302;42.624;23.334;2023-07-29T03:13:24;3.47;;;3.17;;
12474;SDS011;6302;42.624;23.334;2023-07-29T03:15:50;3.70;;;3.40;;
12474;SDS011;6302;42.624;23.334;2023-07-29T03:18:17;3.37;;;2.90;;
12474;SDS011;6302;42.624;23.334;2023-07-29T03:20:44;4.17;;;3.30;;
12474;SDS011;6302;42.624;23.334;2023-07-29T03:23:12;4.27;;;3.00;;
12474;SDS011;6302;42.624;23.334;2023-07-29T03:25:39;4.07;;;3.10;;
12474;SDS011;6302;42.624;23.334;2023-07-29T03:28:06;4.00;;;3.60;;
12474;SDS011;6302;42.624;23.334;2023-07-29T03:30:32;4.17;;;3.03;;
12474;SDS011;6302;42.624;23.334;2023-07-29T03:32:59;3.70;;;3.33;;
12474;SDS011;6302;42.624;23.334;2023-07-29T03:35:26;3.90;;;3.60;;
12474;SDS011;6302;42.624;23.334;2023-07-29T03:37:53;5.43;;;3.97;;
12474;SDS011;6302;42.624;23.334;2023-07-29T03:40:21;4.77;;;3.80;;
12474;SDS011;6302;42.624;23.334;2023-07-29T03:42:48;3.80;;;3.50;;
12474;SDS011;6302;42.624;23.334;2023-07-29T03:45:14;5.67;;;3.87;;
12474;SDS011;6302;42.624;23.334;2023-07-29T03:47:41;4.47;;;3.93;;
12474;SDS011;6302;42.624;23.334;2023-07-29T03:50:08;4.33;;;3.77;;
12474;SDS011;6302;42.624;23.334;2023-07-29T03:52:35;3.70;;;3.40;;
12474;SDS011;6302;42.624;23.334;2023-07-29T03:55:02;4.10;;;3.70;;
12474;SDS011;6302;42.624;23.334;2023-07-29T03:57:31;4.43;;;4.03;;
12474;SDS011;6302;42.624;23.334;2023-07-29T03:59:57;4.77;;;4.00;;
12474;SDS011;6302;42.624;23.334;2023-07-29T04:02:24;5.93;;;3.70;;
12474;SDS011;6302;42.624;23.334;2023-07-29T04:04:51;4.70;;;3.87;;
12474;SDS011;6302;42.624;23.334;2023-07-29T04:07:19;7.00;;;4.50;;
12474;SDS011;6302;42.624;23.334;2023-07-29T04:09:45;6.37;;;4.43;;
12474;SDS011;6302;42.624;23.334;2023-07-29T04:12:12;4.90;;;4.40;;
12474;SDS011;6302;42.624;23.334;2023-07-29T04:14:41;5.70;;;3.67;;
12474;SDS011;6302;42.624;23.334;2023-07-29T04:17:07;4.57;;;4.17;;
12474;SDS011;6302;42.624;23.334;2023-07-29T04:19:34;5.73;;;4.30;;
12474;SDS011;6302;42.624;23.334;2023-07-29T04:22:01;5.80;;;4.17;;
12474;SDS011;6302;42.624;23.334;2023-07-29T04:24:28;5.43;;;4.20;;
12474;SDS011;6302;42.624;23.334;2023-07-29T04:26:54;5.20;;;4.27;;
12474;SDS011;6302;42.624;23.334;2023-07-29T04:29:21;6.83;;;4.10;;
12474;SDS011;6302;42.624;23.334;2023-07-29T04:31:50;4.50;;;4.10;;
12474;SDS011;6302;42.624;23.334;2023-07-29T04:34:16;4.93;;;4.33;;
12474;SDS011;6302;42.624;23.334;2023-07-29T04:36:44;5.27;;;4.17;;
12474;SDS011;6302;42.624;23.334;2023-07-29T04:39:11;6.00;;;4.37;;
12474;SDS011;6302;42.624;23.334;2023-07-29T04:41:37;5.87;;;5.27;;
12474;SDS011;6302;42.624;23.334;2023-07-29T04:44:04;5.50;;;3.90;;
12474;SDS011;6302;42.624;23.334;2023-07-29T04:46:31;4.87;;;4.13;;
12474;SDS011;6302;42.624;23.334;2023-07-29T04:49:00;7.30;;;4.63;;
12474;SDS011;6302;42.624;23.334;2023-07-29T04:51:27;5.40;;;4.50;;
12474;SDS011;6302;42.624;23.334;2023-07-29T04:53:54;6.73;;;4.67;;
12474;SDS011;6302;42.624;23.334;2023-07-29T04:56:21;5.30;;;4.67;;
12474;SDS011;6302;42.624;23.334;2023-07-29T04:58:48;5.33;;;4.53;;
12474;SDS011;6302;42.624;23.334;2023-07-29T05:01:14;5.10;;;4.57;;
12474;SDS011;6302;42.624;23.334;2023-07-29T05:03:41;4.70;;;4.30;;
12474;SDS011;6302;42.624;23.334;2023-07-29T05:06:10;5.23;;;4.73;;
12474;SDS011;6302;42.624;23.334;2023-07-29T05:08:36;4.87;;;4.47;;
12474;SDS011;6302;42.624;23.334;2023-07-29T05:11:03;5.57;;;5.03;;
12474;SDS011;6302;42.624;23.334;2023-07-29T05:13:30;6.13;;;4.83;;
12474;SDS011;6302;42.624;23.334;2023-07-29T05:15:57;7.67;;;4.80;;
12474;SDS011;6302;42.624;23.334;2023-07-29T05:18:24;6.27;;;5.10;;
12474;SDS011;6302;42.624;23.334;2023-07-29T05:20:50;7.17;;;5.17;;
12474;SDS011;6302;42.624;23.334;2023-07-29T05:23:18;7.63;;;4.80;;
12474;SDS011;6302;42.624;23.334;2023-07-29T05:25:45;5.30;;;4.83;;
12474;SDS011;6302;42.624;23.334;2023-07-29T05:28:12;11.30;;;5.30;;
12474;SDS011;6302;42.624;23.334;2023-07-29T05:30:39;5.20;;;4.70;;
12474;SDS011;6302;42.624;23.334;2023-07-29T05:33:05;8.57;;;4.30;;
12474;SDS011;6302;42.624;23.334;2023-07-29T05:35:33;6.20;;;5.07;;
12474;SDS011;6302;42.624;23.334;2023-07-29T05:38:00;6.07;;;4.30;;
12474;SDS011;6302;42.624;23.334;2023-07-29T05:40:29;5.50;;;4.53;;
12474;SDS011;6302;42.624;23.334;2023-07-29T05:42:56;5.00;;;4.50;;
12474;SDS011;6302;42.624;23.334;2023-07-29T05:45:23;5.33;;;4.40;;
12474;SDS011;6302;42.624;23.334;2023-07-29T05:47:50;4.93;;;4.10;;
12474;SDS011;6302;42.624;23.334;2023-07-29T05:50:16;7.70;;;4.73;;
12474;SDS011;6302;42.624;23.334;2023-07-29T05:52:43;5.27;;;4.77;;
12474;SDS011;6302;42.624;23.334;2023-07-29T05:55:10;6.20;;;4.70;;
12474;SDS011;6302;42.624;23.334;2023-07-29T05:57:38;8.83;;;4.03;;
12474;SDS011;6302;42.624;23.334;2023-07-29T06:00:05;7.10;;;4.30;;
12474;SDS011;6302;42.624;23.334;2023-07-29T06:02:33;5.70;;;4.20;;
12474;SDS011;6302;42.624;23.334;2023-07-29T06:05:00;6.13;;;4.27;;
12474;SDS011;6302;42.624;23.334;2023-07-29T06:07:28;4.47;;;4.07;;
12474;SDS011;6302;42.624;23.334;2023-07-29T06:09:57;5.47;;;4.33;;
12474;SDS011;6302;42.624;23.334;2023-07-29T06:12:24;5.03;;;3.67;;
12474;SDS011;6302;42.624;23.334;2023-07-29T06:14:52;6.20;;;4.20;;
12474;SDS011;6302;42.624;23.334;2023-07-29T06:17:19;4.57;;;4.17;;
12474;SDS011;6302;42.624;23.334;2023-07-29T06:19:45;4.43;;;3.93;;
12474;SDS011;6302;42.624;23.334;2023-07-29T06:22:12;4.30;;;3.83;;
12474;SDS011;6302;42.624;23.334;2023-07-29T06:24:39;4.13;;;3.70;;
12474;SDS011;6302;42.624;23.334;2023-07-29T06:27:06;4.07;;;3.67;;
12474;SDS011;6302;42.624;23.334;2023-07-29T06:29:32;5.30;;;3.20;;
12474;SDS011;6302;42.624;23.334;2023-07-29T06:32:00;4.70;;;3.50;;
12474;SDS011;6302;42.624;23.334;2023-07-29T06:34:27;5.43;;;3.47;;
12474;SDS011;6302;42.624;23.334;2023-07-29T06:36:54;8.33;;;3.87;;
12474;SDS011;6302;42.624;23.334;2023-07-29T06:39:21;4.03;;;3.17;;
12474;SDS011;6302;42.624;23.334;2023-07-29T06:41:47;13.02;;;4.05;;
12474;SDS011;6302;42.624;23.334;2023-07-29T06:44:14;11.77;;;4.07;;
12474;SDS011;6302;42.624;23.334;2023-07-29T06:46:41;12.90;;;4.57;;
12474;SDS011;6302;42.624;23.334;2023-07-29T06:49:09;11.27;;;3.67;;
12474;SDS011;6302;42.624;23.334;2023-07-29T06:51:36;5.07;;;3.30;;
12474;SDS011;6302;42.624;23.334;2023-07-29T06:54:05;6.33;;;3.87;;
12474;SDS011;6302;42.624;23.334;2023-07-29T06:56:32;3.90;;;3.50;;
12474;SDS011;6302;42.624;23.334;2023-07-29T06:58:59;6.70;;;3.50;;
12474;SDS011;6302;42.624;23.334;2023-07-29T07:01:26;4.00;;;3.60;;
12474;SDS011;6302;42.624;23.334;2023-07-29T07:03:53;4.73;;;3.50;;
12474;SDS011;6302;42.624;23.334;2023-07-29T07:06:21;4.85;;;3.67;;
12474;SDS011;6302;42.624;23.334;2023-07-29T07:08:49;8.98;;;3.83;;
12474;SDS011;6302;42.624;23.334;2023-07-29T07:11:16;10.55;;;3.83;;
12474;SDS011;6302;42.624;23.334;2023-07-29T07:13:44;6.90;;;3.63;;
12474;SDS011;6302;42.624;23.334;2023-07-29T07:16:11;5.82;;;3.35;;
12474;SDS011;6302;42.624;23.334;2023-07-29T07:18:37;7.60;;;3.63;;
12474;SDS011;6302;42.624;23.334;2023-07-29T07:21:04;8.90;;;3.58;;
12474;SDS011;6302;42.624;23.334;2023-07-29T07:23:32;3.83;;;3.40;;
12474;SDS011;6302;42.624;23.334;2023-07-29T07:25:59;4.85;;;3.30;;
12474;SDS011;6302;42.624;23.334;2023-07-29T07:28:26;6.78;;;3.60;;
12474;SDS011;6302;42.624;23.334;2023-07-29T07:30:53;9.02;;;3.92;;
12474;SDS011;6302;42.624;23.334;2023-07-29T07:33:21;7.38;;;3.80;;
12474;SDS011;6302;42.624;23.334;2023-07-29T07:35:47;5.93;;;3.55;;
12474;SDS011;6302;42.624;23.334;2023-07-29T07:38:14;8.02;;;4.05;;
12474;SDS011;6302;42.624;23.334;2023-07-29T07:40:42;11.88;;;3.80;;
12474;SDS011;6302;42.624;23.334;2023-07-29T07:43:18;5.18;;;3.47;;
12474;SDS011;6302;42.624;23.334;2023-07-29T07:45:44;3.78;;;3.47;;
12474;SDS011;6302;42.624;23.334;2023-07-29T07:48:11;6.25;;;3.38;;
12474;SDS011;6302;42.624;23.334;2023-07-29T07:50:38;5.18;;;3.25;;
12474;SDS011;6302;42.624;23.334;2023-07-29T07:53:05;4.68;;;3.60;;
12474;SDS011;6302;42.624;23.334;2023-07-29T07:55:31;6.70;;;3.13;;
12474;SDS011;6302;42.624;23.334;2023-07-29T07:58:00;5.85;;;3.10;;
12474;SDS011;6302;42.624;23.334;2023-07-29T08:00:26;4.60;;;3.10;;
12474;SDS011;6302;42.624;23.334;2023-07-29T08:02:53;5.15;;;3.67;;
12474;SDS011;6302;42.624;23.334;2023-07-29T08:05:20;3.75;;;3.38;;
12474;SDS011;6302;42.624;23.334;2023-07-29T08:07:49;6.35;;;3.50;;
12474;SDS011;6302;42.624;23.334;2023-07-29T08:10:16;4.68;;;3.72;;
12474;SDS011;6302;42.624;23.334;2023-07-29T08:12:43;4.20;;;3.60;;
12474;SDS011;6302;42.624;23.334;2023-07-29T08:15:11;3.95;;;3.55;;
12474;SDS011;6302;42.624;23.334;2023-07-29T08:17:38;5.75;;;3.53;;
12474;SDS011;6302;42.624;23.334;2023-07-29T08:20:05;5.95;;;4.00;;
12474;SDS011;6302;42.624;23.334;2023-07-29T08:22:32;5.60;;;3.58;;
12474;SDS011;6302;42.624;23.334;2023-07-29T08:24:59;4.82;;;3.95;;
12474;SDS011;6302;42.624;23.334;2023-07-29T08:27:26;5.60;;;3.55;;
12474;SDS011;6302;42.624;23.334;2023-07-29T08:29:53;4.30;;;3.47;;
12474;SDS011;6302;42.624;23.334;2023-07-29T08:32:22;3.40;;;3.10;;
12474;SDS011;6302;42.624;23.334;2023-07-29T08:34:58;5.53;;;3.58;;
12474;SDS011;6302;42.624;23.334;2023-07-29T08:37:24;3.10;;;2.90;;
12474;SDS011;6302;42.624;23.334;2023-07-29T08:39:52;5.15;;;2.83;;
12474;SDS011;6302;42.624;23.334;2023-07-29T08:42:20;4.93;;;2.90;;
12474;SDS011;6302;42.624;23.334;2023-07-29T08:44:49;4.20;;;2.90;;
12474;SDS011;6302;42.624;23.334;2023-07-29T08:47:21;4.18;;;2.95;;
12474;SDS011;6302;42.624;23.334;2023-07-29T08:49:48;3.75;;;2.97;;
12474;SDS011;6302;42.624;23.334;2023-07-29T08:52:19;13.25;;;4.05;;
12474;SDS011;6302;42.624;23.334;2023-07-29T08:54:46;4.28;;;3.13;;
12474;SDS011;6302;42.624;23.334;2023-07-29T08:57:13;5.15;;;3.67;;
12474;SDS011;6302;42.624;23.334;2023-07-29T08:59:40;5.60;;;3.42;;
12474;SDS011;6302;42.624;23.334;2023-07-29T09:02:08;3.85;;;3.35;;
12474;SDS011;6302;42.624;23.334;2023-07-29T09:04:36;3.67;;;2.90;;
12474;SDS011;6302;42.624;23.334;2023-07-29T09:07:03;5.55;;;3.00;;
12474;SDS011;6302;42.624;23.334;2023-07-29T09:09:32;2.92;;;2.70;;
12474;SDS011;6302;42.624;23.334;2023-07-29T09:11:58;6.45;;;3.30;;
12474;SDS011;6302;42.624;23.334;2023-07-29T09:14:25;3.20;;;2.80;;
12474;SDS011;6302;42.624;23.334;2023-07-29T09:16:53;3.20;;;2.90;;
12474;SDS011;6302;42.624;23.334;2023-07-29T09:19:20;5.72;;;2.80;;
12474;SDS011;6302;42.624;23.334;2023-07-29T09:21:48;3.47;;;2.70;;
12474;SDS011;6302;42.624;23.334;2023-07-29T09:24:16;4.00;;;2.75;;
12474;SDS011;6302;42.624;23.334;2023-07-29T09:26:48;5.28;;;2.67;;
12474;SDS011;6302;42.624;23.334;2023-07-29T09:29:16;3.38;;;1.98;;
12474;SDS011;6302;42.624;23.334;2023-07-29T09:31:48;3.63;;;2.63;;
12474;SDS011;6302;42.624;23.334;2023-07-29T09:34:15;3.40;;;2.28;;
12474;SDS011;6302;42.624;23.334;2023-07-29T09:36:43;4.15;;;2.28;;
12474;SDS011;6302;42.624;23.334;2023-07-29T09:39:12;3.88;;;2.60;;
12474;SDS011;6302;42.624;23.334;2023-07-29T09:41:39;6.00;;;2.40;;
12474;SDS011;6302;42.624;23.334;2023-07-29T09:44:06;3.63;;;2.25;;
12474;SDS011;6302;42.624;23.334;2023-07-29T09:46:34;2.72;;;2.08;;
12474;SDS011;6302;42.624;23.334;2023-07-29T09:49:02;2.50;;;2.15;;
12474;SDS011;6302;42.624;23.334;2023-07-29T09:51:30;3.58;;;2.20;;
12474;SDS011;6302;42.624;23.334;2023-07-29T09:53:56;6.13;;;2.17;;
12474;SDS011;6302;42.624;23.334;2023-07-29T09:56:26;2.30;;;1.90;;
12474;SDS011;6302;42.624;23.334;2023-07-29T09:58:53;3.97;;;2.20;;
12474;SDS011;6302;42.624;23.334;2023-07-29T10:01:22;3.90;;;2.42;;
12474;SDS011;6302;42.624;23.334;2023-07-29T10:03:49;3.20;;;1.90;;
12474;SDS011;6302;42.624;23.334;2023-07-29T10:06:16;2.00;;;1.80;;
12474;SDS011;6302;42.624;23.334;2023-07-29T10:08:44;3.38;;;1.95;;
12474;SDS011;6302;42.624;23.334;2023-07-29T10:11:12;2.03;;;1.83;;
12474;SDS011;6302;42.624;23.334;2023-07-29T10:13:40;1.80;;;1.70;;
12474;SDS011;6302;42.624;23.334;2023-07-29T10:16:07;2.03;;;1.60;;
12474;SDS011;6302;42.624;23.334;2023-07-29T10:18:35;1.70;;;1.50;;
12474;SDS011;6302;42.624;23.334;2023-07-29T10:21:02;3.45;;;1.83;;
12474;SDS011;6302;42.624;23.334;2023-07-29T10:23:37;1.90;;;1.80;;
12474;SDS011;6302;42.624;23.334;2023-07-29T10:26:09;3.78;;;2.17;;
12474;SDS011;6302;42.624;23.334;2023-07-29T10:28:39;1.90;;;1.80;;
12474;SDS011;6302;42.624;23.334;2023-07-29T10:31:15;1.70;;;1.60;;
12474;SDS011;6302;42.624;23.334;2023-07-29T10:33:42;2.13;;;1.92;;
12474;SDS011;6302;42.624;23.334;2023-07-29T10:36:10;1.73;;;1.63;;
12474;SDS011;6302;42.624;23.334;2023-07-29T10:38:36;2.15;;;2.00;;
12474;SDS011;6302;42.624;23.334;2023-07-29T10:41:04;2.55;;;1.80;;
12474;SDS011;6302;42.624;23.334;2023-07-29T10:43:32;4.15;;;2.00;;
12474;SDS011;6302;42.624;23.334;2023-07-29T10:46:15;3.38;;;2.08;;
12474;SDS011;6302;42.624;23.334;2023-07-29T10:48:44;3.22;;;2.05;;
12474;SDS011;6302;42.624;23.334;2023-07-29T10:51:24;2.30;;;2.10;;
12474;SDS011;6302;42.624;23.334;2023-07-29T10:53:55;2.08;;;1.88;;
12474;SDS011;6302;42.624;23.334;2023-07-29T10:56:26;2.95;;;2.00;;
12474;SDS011;6302;42.624;23.334;2023-07-29T10:58:55;12.77;;;2.95;;
12474;SDS011;6302;42.624;23.334;2023-07-29T11:01:27;2.90;;;1.80;;
12474;SDS011;6302;42.624;23.334;2023-07-29T11:09:55;2.33;;;1.65;;
12474;SDS011;6302;42.624;23.334;2023-07-29T11:12:40;1.83;;;1.73;;
12474;SDS011;6302;42.624;23.334;2023-07-29T11:15:12;2.85;;;1.60;;
12474;SDS011;6302;42.624;23.334;2023-07-29T11:17:42;2.58;;;1.50;;
12474;SDS011;6302;42.624;23.334;2023-07-29T11:20:10;4.18;;;1.83;;
12474;SDS011;6302;42.624;23.334;2023-07-29T11:22:38;2.70;;;1.67;;
12474;SDS011;6302;42.624;23.334;2023-07-29T11:25:07;2.03;;;1.67;;
12474;SDS011;6302;42.624;23.334;2023-07-29T11:27:36;2.90;;;1.73;;
12474;SDS011;6302;42.624;23.334;2023-07-29T11:30:04;3.33;;;1.65;;
12474;SDS011;6302;42.624;23.334;2023-07-29T11:32:34;2.53;;;1.60;;
12474;SDS011;6302;42.624;23.334;2023-07-29T11:35:06;2.22;;;1.60;;
12474;SDS011;6302;42.624;23.334;2023-07-29T11:37:37;2.05;;;1.60;;
12474;SDS011;6302;42.624;23.334;2023-07-29T11:40:04;2.00;;;1.50;;
12474;SDS011;6302;42.624;23.334;2023-07-29T11:42:35;2.38;;;1.50;;
12474;SDS011;6302;42.624;23.334;2023-07-29T11:45:03;5.43;;;1.67;;
12474;SDS011;6302;42.624;23.334;2023-07-29T11:47:31;6.60;;;1.67;;
12474;SDS011;6302;42.624;23.334;2023-07-29T11:50:01;1.70;;;1.50;;
12474;SDS011;6302;42.624;23.334;2023-07-29T11:52:30;2.03;;;1.52;;
12474;SDS011;6302;42.624;23.334;2023-07-29T11:54:59;2.47;;;1.50;;
12474;SDS011;6302;42.624;23.334;2023-07-29T11:57:28;2.45;;;1.45;;
12474;SDS011;6302;42.624;23.334;2023-07-29T11:59:56;1.75;;;1.58;;
12474;SDS011;6302;42.624;23.334;2023-07-29T12:02:24;2.05;;;1.52;;
12474;SDS011;6302;42.624;23.334;2023-07-29T12:04:52;2.25;;;1.70;;
12474;SDS011;6302;42.624;23.334;2023-07-29T12:07:20;1.88;;;1.60;;
12474;SDS011;6302;42.624;23.334;2023-07-29T12:09:48;7.68;;;1.90;;
12474;SDS011;6302;42.624;23.334;2023-07-29T12:12:16;1.63;;;1.52;;
12474;SDS011;6302;42.624;23.334;2023-07-29T12:14:43;1.60;;;1.50;;
12474;SDS011;6302;42.624;23.334;2023-07-29T12:17:11;3.80;;;1.67;;
12474;SDS011;6302;42.624;23.334;2023-07-29T12:19:39;1.73;;;1.45;;
12474;SDS011;6302;42.624;23.334;2023-07-29T12:22:07;1.95;;;1.70;;
12474;SDS011;6302;42.624;23.334;2023-07-29T12:24:36;1.45;;;1.35;;
12474;SDS011;6302;42.624;23.334;2023-07-29T12:27:10;1.63;;;1.42;;
12474;SDS011;6302;42.624;23.334;2023-07-29T12:29:39;2.35;;;1.38;;
12474;SDS011;6302;42.624;23.334;2023-07-29T12:32:07;1.90;;;1.20;;
12474;SDS011;6302;42.624;23.334;2023-07-29T12:34:35;1.60;;;1.50;;
12474;SDS011;6302;42.624;23.334;2023-07-29T12:37:03;2.50;;;1.75;;
12474;SDS011;6302;42.624;23.334;2023-07-29T12:39:31;1.60;;;1.50;;
12474;SDS011;6302;42.624;23.334;2023-07-29T12:42:00;1.77;;;1.67;;
12474;SDS011;6302;42.624;23.334;2023-07-29T12:44:31;2.08;;;1.42;;
12474;SDS011;6302;42.624;23.334;2023-07-29T12:46:59;2.45;;;1.58;;
12474;SDS011;6302;42.624;23.334;2023-07-29T12:49:27;3.33;;;1.65;;
12474;SDS011;6302;42.624;23.334;2023-07-29T12:51:54;1.65;;;1.55;;
12474;SDS011;6302;42.624;23.334;2023-07-29T12:54:21;1.60;;;1.50;;
12474;SDS011;6302;42.624;23.334;2023-07-29T12:56:48;1.80;;;1.70;;
12474;SDS011;6302;42.624;23.334;2023-07-29T12:59:15;1.67;;;1.58;;
12474;SDS011;6302;42.624;23.334;2023-07-29T13:01:43;1.63;;;1.52;;
12474;SDS011;6302;42.624;23.334;2023-07-29T13:04:10;2.65;;;1.92;;
12474;SDS011;6302;42.624;23.334;2023-07-29T13:06:37;1.50;;;1.40;;
12474;SDS011;6302;42.624;23.334;2023-07-29T13:09:04;1.88;;;1.70;;
12474;SDS011;6302;42.624;23.334;2023-07-29T13:11:32;2.70;;;1.73;;
12474;SDS011;6302;42.624;23.334;2023-07-29T13:13:59;1.98;;;1.63;;
12474;SDS011;6302;42.624;23.334;2023-07-29T13:16:26;1.58;;;1.48;;
12474;SDS011;6302;42.624;23.334;2023-07-29T13:18:55;1.70;;;1.60;;
12474;SDS011;6302;42.624;23.334;2023-07-29T13:21:22;1.88;;;1.70;;
12474;SDS011;6302;42.624;23.334;2023-07-29T13:23:49;1.85;;;1.70;;
12474;SDS011;6302;42.624;23.334;2023-07-29T13:26:16;3.47;;;1.52;;
12474;SDS011;6302;42.624;23.334;2023-07-29T13:28:43;2.05;;;1.67;;
12474;SDS011;6302;42.624;23.334;2023-07-29T13:31:09;1.90;;;1.75;;
12474;SDS011;6302;42.624;23.334;2023-07-29T13:33:36;2.47;;;1.83;;
12474;SDS011;6302;42.624;23.334;2023-07-29T13:36:05;1.83;;;1.63;;
12474;SDS011;6302;42.624;23.334;2023-07-29T13:38:33;2.28;;;2.08;;
12474;SDS011;6302;42.624;23.334;2023-07-29T13:41:00;1.70;;;1.60;;
12474;SDS011;6302;42.624;23.334;2023-07-29T13:43:27;1.85;;;1.75;;
12474;SDS011;6302;42.624;23.334;2023-07-29T13:45:54;3.70;;;2.00;;
12474;SDS011;6302;42.624;23.334;2023-07-29T13:48:23;2.88;;;1.55;;
12474;SDS011;6302;42.624;23.334;2023-07-29T13:50:50;2.00;;;1.80;;
12474;SDS011;6302;42.624;23.334;2023-07-29T13:53:20;2.53;;;1.90;;
12474;SDS011;6302;42.624;23.334;2023-07-29T13:55:47;1.73;;;1.63;;
12474;SDS011;6302;42.624;23.334;2023-07-29T13:58:13;1.88;;;1.77;;
12474;SDS011;6302;42.624;23.334;2023-07-29T14:00:52;2.05;;;1.90;;
12474;SDS011;6302;42.624;23.334;2023-07-29T14:03:25;2.83;;;2.15;;
12474;SDS011;6302;42.624;23.334;2023-07-29T14:05:52;4.45;;;1.80;;
12474;SDS011;6302;42.624;23.334;2023-07-29T14:08:21;1.85;;;1.73;;
12474;SDS011;6302;42.624;23.334;2023-07-29T14:10:49;1.80;;;1.70;;
12474;SDS011;6302;42.624;23.334;2023-07-29T14:13:16;3.28;;;1.88;;
12474;SDS011;6302;42.624;23.334;2023-07-29T14:15:43;2.30;;;2.05;;
12474;SDS011;6302;42.624;23.334;2023-07-29T14:18:10;2.53;;;2.05;;
12474;SDS011;6302;42.624;23.334;2023-07-29T14:20:37;4.43;;;2.53;;
12474;SDS011;6302;42.624;23.334;2023-07-29T14:23:03;3.25;;;2.35;;
12474;SDS011;6302;42.624;23.334;2023-07-29T14:25:32;2.28;;;2.10;;
12474;SDS011;6302;42.624;23.334;2023-07-29T14:27:58;3.28;;;2.30;;
12474;SDS011;6302;42.624;23.334;2023-07-29T14:30:25;3.67;;;2.28;;
12474;SDS011;6302;42.624;23.334;2023-07-29T14:32:52;2.40;;;2.20;;
12474;SDS011;6302;42.624;23.334;2023-07-29T14:35:19;2.30;;;2.10;;
12474;SDS011;6302;42.624;23.334;2023-07-29T14:37:46;2.03;;;1.88;;
12474;SDS011;6302;42.624;23.334;2023-07-29T14:40:12;3.15;;;2.03;;
12474;SDS011;6302;42.624;23.334;2023-07-29T14:42:41;2.75;;;2.22;;
12474;SDS011;6302;42.624;23.334;2023-07-29T14:45:07;2.30;;;2.10;;
12474;SDS011;6302;42.624;23.334;2023-07-29T14:47:35;3.78;;;2.20;;
12474;SDS011;6302;42.624;23.334;2023-07-29T14:50:01;4.80;;;2.55;;
12474;SDS011;6302;42.624;23.334;2023-07-29T14:52:28;3.90;;;2.03;;
12474;SDS011;6302;42.624;23.334;2023-07-29T14:54:55;2.42;;;1.80;;
12474;SDS011;6302;42.624;23.334;2023-07-29T14:57:22;1.77;;;1.65;;
12474;SDS011;6302;42.624;23.334;2023-07-29T14:59:50;2.22;;;1.80;;